sensor_id;sensor_type;location;lat;lon;timestamp;temperature;humidity
75281;HTU21D;63874;47.230;39.620;2023-03-16T00:02:20;9.05;76.15
75281;HTU21D;63874;47.230;39.620;2023-03-16T00:04:46;9.01;76.22
75281;HTU21D;63874;47.230;39.620;2023-03-16T00:07:13;8.97;76.12
75281;HTU21D;63874;47.230;39.620;2023-03-16T00:09:40;8.97;76.11
75281;HTU21D;63874;47.230;39.620;2023-03-16T00:12:14;8.95;76.17
75281;HTU21D;63874;47.230;39.620;2023-03-16T00:14:49;8.93;76.17
75281;HTU21D;63874;47.230;39.620;2023-03-16T00:17:17;8.93;76.26
75281;HTU21D;63874;47.230;39.620;2023-03-16T00:19:49;8.95;76.32
75281;HTU21D;63874;47.230;39.620;2023-03-16T00:22:27;8.90;76.39
75281;HTU21D;63874;47.230;39.620;2023-03-16T00:24:54;8.88;76.31
75281;HTU21D;63874;47.230;39.620;2023-03-16T00:27:21;8.90;76.41
75281;HTU21D;63874;47.230;39.620;2023-03-16T00:29:49;8.91;76.51
75281;HTU21D;63874;47.230;39.620;2023-03-16T00:32:31;8.95;76.49
75281;HTU21D;63874;47.230;39.620;2023-03-16T00:34:58;9.00;76.33
75281;HTU21D;63874;47.230;39.620;2023-03-16T00:37:26;9.02;76.47
75281;HTU21D;63874;47.230;39.620;2023-03-16T00:39:52;9.07;76.70
75281;HTU21D;63874;47.230;39.620;2023-03-16T00:42:25;9.10;76.50
75281;HTU21D;63874;47.230;39.620;2023-03-16T00:44:54;9.12;76.38
75281;HTU21D;63874;47.230;39.620;2023-03-16T00:47:30;9.15;76.43
75281;HTU21D;63874;47.230;39.620;2023-03-16T00:49:56;9.20;76.42
75281;HTU21D;63874;47.230;39.620;2023-03-16T00:52:23;9.22;76.25
75281;HTU21D;63874;47.230;39.620;2023-03-16T00:54:49;9.25;76.31
75281;HTU21D;63874;47.230;39.620;2023-03-16T00:57:19;9.26;76.45
75281;HTU21D;63874;47.230;39.620;2023-03-16T00:59:47;9.29;76.28
75281;HTU21D;63874;47.230;39.620;2023-03-16T01:02:15;9.31;76.16
75281;HTU21D;63874;47.230;39.620;2023-03-16T01:04:41;9.31;76.09
75281;HTU21D;63874;47.230;39.620;2023-03-16T01:07:10;9.33;76.05
75281;HTU21D;63874;47.230;39.620;2023-03-16T01:09:41;9.33;76.08
75281;HTU21D;63874;47.230;39.620;2023-03-16T01:12:10;9.35;76.05
75281;HTU21D;63874;47.230;39.620;2023-03-16T01:14:37;9.35;75.97
75281;HTU21D;63874;47.230;39.620;2023-03-16T01:17:04;9.34;76.04
75281;HTU21D;63874;47.230;39.620;2023-03-16T01:19:33;9.33;76.00
75281;HTU21D;63874;47.230;39.620;2023-03-16T01:22:04;9.33;76.04
75281;HTU21D;63874;47.230;39.620;2023-03-16T01:24:31;9.33;76.04
75281;HTU21D;63874;47.230;39.620;2023-03-16T01:26:58;9.32;76.01
75281;HTU21D;63874;47.230;39.620;2023-03-16T01:29:24;9.33;76.12
75281;HTU21D;63874;47.230;39.620;2023-03-16T01:31:52;9.34;75.97
75281;HTU21D;63874;47.230;39.620;2023-03-16T01:34:21;9.31;76.12
75281;HTU21D;63874;47.230;39.620;2023-03-16T01:36:49;9.33;75.92
75281;HTU21D;63874;47.230;39.620;2023-03-16T01:39:23;9.35;75.81
75281;HTU21D;63874;47.230;39.620;2023-03-16T01:41:50;9.33;75.67
75281;HTU21D;63874;47.230;39.620;2023-03-16T01:44:22;9.32;75.57
75281;HTU21D;63874;47.230;39.620;2023-03-16T01:46:49;9.32;75.46
75281;HTU21D;63874;47.230;39.620;2023-03-16T01:49:23;9.30;75.41
75281;HTU21D;63874;47.230;39.620;2023-03-16T01:52:03;9.30;75.50
75281;HTU21D;63874;47.230;39.620;2023-03-16T01:54:47;9.31;75.25
75281;HTU21D;63874;47.230;39.620;2023-03-16T01:57:21;9.32;75.15
75281;HTU21D;63874;47.230;39.620;2023-03-16T01:59:56;9.30;75.05
75281;HTU21D;63874;47.230;39.620;2023-03-16T02:02:29;9.31;74.94
75281;HTU21D;63874;47.230;39.620;2023-03-16T02:07:28;9.31;74.64
75281;HTU21D;63874;47.230;39.620;2023-03-16T02:09:57;9.27;74.53
75281;HTU21D;63874;47.230;39.620;2023-03-16T02:12:26;9.26;74.38
75281;HTU21D;63874;47.230;39.620;2023-03-16T02:14:55;9.23;74.28
75281;HTU21D;63874;47.230;39.620;2023-03-16T02:17:24;9.18;74.18
75281;HTU21D;63874;47.230;39.620;2023-03-16T02:22:50;9.18;73.88
75281;HTU21D;63874;47.230;39.620;2023-03-16T02:25:22;9.19;73.67
75281;HTU21D;63874;47.230;39.620;2023-03-16T02:30:26;9.10;73.41
75281;HTU21D;63874;47.230;39.620;2023-03-16T02:32:57;9.06;73.30
75281;HTU21D;63874;47.230;39.620;2023-03-16T02:35:23;9.00;73.30
75281;HTU21D;63874;47.230;39.620;2023-03-16T02:37:49;8.98;73.25
75281;HTU21D;63874;47.230;39.620;2023-03-16T02:40:19;8.96;73.14
75281;HTU21D;63874;47.230;39.620;2023-03-16T02:42:53;8.94;73.08
75281;HTU21D;63874;47.230;39.620;2023-03-16T02:45:23;8.91;73.06
75281;HTU21D;63874;47.230;39.620;2023-03-16T02:47:51;8.91;72.83
75281;HTU21D;63874;47.230;39.620;2023-03-16T02:50:18;8.89;72.77
75281;HTU21D;63874;47.230;39.620;2023-03-16T02:52:44;8.86;72.70
75281;HTU21D;63874;47.230;39.620;2023-03-16T02:55:12;8.86;72.37
75281;HTU21D;63874;47.230;39.620;2023-03-16T02:57:38;8.79;72.28
75281;HTU21D;63874;47.230;39.620;2023-03-16T03:00:09;8.75;72.10
75281;HTU21D;63874;47.230;39.620;2023-03-16T03:02:46;8.67;71.91
75281;HTU21D;63874;47.230;39.620;2023-03-16T03:05:12;8.60;71.98
75281;HTU21D;63874;47.230;39.620;2023-03-16T03:07:38;8.55;72.06
75281;HTU21D;63874;47.230;39.620;2023-03-16T03:10:06;8.52;72.09
75281;HTU21D;63874;47.230;39.620;2023-03-16T03:12:33;8.50;71.88
75281;HTU21D;63874;47.230;39.620;2023-03-16T03:15:01;8.48;71.71
75281;HTU21D;63874;47.230;39.620;2023-03-16T03:17:34;8.47;71.31
75281;HTU21D;63874;47.230;39.620;2023-03-16T03:20:02;8.38;71.28
75281;HTU21D;63874;47.230;39.620;2023-03-16T03:22:38;8.33;71.03
75281;HTU21D;63874;47.230;39.620;2023-03-16T03:25:05;8.28;71.11
75281;HTU21D;63874;47.230;39.620;2023-03-16T03:27:31;8.27;71.00
75281;HTU21D;63874;47.230;39.620;2023-03-16T03:29:58;8.24;71.06
75281;HTU21D;63874;47.230;39.620;2023-03-16T03:32:27;8.22;70.91
75281;HTU21D;63874;47.230;39.620;2023-03-16T03:34:53;8.18;70.93
75281;HTU21D;63874;47.230;39.620;2023-03-16T03:37:19;8.14;71.00
75281;HTU21D;63874;47.230;39.620;2023-03-16T03:39:45;8.15;70.90
75281;HTU21D;63874;47.230;39.620;2023-03-16T03:42:12;8.14;70.85
75281;HTU21D;63874;47.230;39.620;2023-03-16T03:44:38;8.09;70.72
75281;HTU21D;63874;47.230;39.620;2023-03-16T03:47:04;8.07;70.58
75281;HTU21D;63874;47.230;39.620;2023-03-16T03:49:30;8.02;70.68
75281;HTU21D;63874;47.230;39.620;2023-03-16T03:51:56;8.01;70.68
75281;HTU21D;63874;47.230;39.620;2023-03-16T03:54:25;8.00;70.62
75281;HTU21D;63874;47.230;39.620;2023-03-16T03:56:55;7.98;70.51
75281;HTU21D;63874;47.230;39.620;2023-03-16T03:59:21;7.94;70.49
75281;HTU21D;63874;47.230;39.620;2023-03-16T04:02:22;7.88;70.59
75281;HTU21D;63874;47.230;39.620;2023-03-16T04:04:51;7.85;70.71
75281;HTU21D;63874;47.230;39.620;2023-03-16T04:07:17;7.85;70.87
75281;HTU21D;63874;47.230;39.620;2023-03-16T04:09:44;7.85;70.98
75281;HTU21D;63874;47.230;39.620;2023-03-16T04:12:19;7.90;70.78
75281;HTU21D;63874;47.230;39.620;2023-03-16T04:14:46;7.92;70.68
75281;HTU21D;63874;47.230;39.620;2023-03-16T04:17:13;7.88;70.70
75281;HTU21D;63874;47.230;39.620;2023-03-16T04:19:40;7.86;70.71
75281;HTU21D;63874;47.230;39.620;2023-03-16T04:22:10;7.89;70.77
75281;HTU21D;63874;47.230;39.620;2023-03-16T04:24:38;7.92;70.76
75281;HTU21D;63874;47.230;39.620;2023-03-16T04:27:05;7.98;70.68
75281;HTU21D;63874;47.230;39.620;2023-03-16T04:29:31;7.99;70.57
75281;HTU21D;63874;47.230;39.620;2023-03-16T04:31:58;7.99;70.51
75281;HTU21D;63874;47.230;39.620;2023-03-16T04:34:26;7.98;70.40
75281;HTU21D;63874;47.230;39.620;2023-03-16T04:36:55;7.94;70.45
75281;HTU21D;63874;47.230;39.620;2023-03-16T04:39:21;7.89;70.58
75281;HTU21D;63874;47.230;39.620;2023-03-16T04:41:48;7.89;70.67
75281;HTU21D;63874;47.230;39.620;2023-03-16T04:44:19;7.89;70.71
75281;HTU21D;63874;47.230;39.620;2023-03-16T04:46:45;7.89;70.73
75281;HTU21D;63874;47.230;39.620;2023-03-16T04:49:12;7.87;70.71
75281;HTU21D;63874;47.230;39.620;2023-03-16T04:51:41;7.86;70.74
75281;HTU21D;63874;47.230;39.620;2023-03-16T04:54:11;7.86;70.72
75281;HTU21D;63874;47.230;39.620;2023-03-16T04:56:40;7.85;70.68
75281;HTU21D;63874;47.230;39.620;2023-03-16T04:59:13;7.88;70.73
75281;HTU21D;63874;47.230;39.620;2023-03-16T05:01:45;7.87;70.63
75281;HTU21D;63874;47.230;39.620;2023-03-16T05:04:13;7.84;70.64
75281;HTU21D;63874;47.230;39.620;2023-03-16T05:06:39;7.85;70.54
75281;HTU21D;63874;47.230;39.620;2023-03-16T05:09:07;7.86;70.58
75281;HTU21D;63874;47.230;39.620;2023-03-16T05:11:35;7.87;70.59
75281;HTU21D;63874;47.230;39.620;2023-03-16T05:14:05;7.89;70.53
75281;HTU21D;63874;47.230;39.620;2023-03-16T05:16:35;7.91;70.54
75281;HTU21D;63874;47.230;39.620;2023-03-16T05:19:01;7.96;70.55
75281;HTU21D;63874;47.230;39.620;2023-03-16T05:21:31;7.99;70.40
75281;HTU21D;63874;47.230;39.620;2023-03-16T05:24:05;8.03;70.44
75281;HTU21D;63874;47.230;39.620;2023-03-16T05:26:31;8.08;70.29
75281;HTU21D;63874;47.230;39.620;2023-03-16T05:28:57;8.09;70.33
75281;HTU21D;63874;47.230;39.620;2023-03-16T05:31:25;8.15;70.02
75281;HTU21D;63874;47.230;39.620;2023-03-16T05:33:55;8.12;69.82
75281;HTU21D;63874;47.230;39.620;2023-03-16T05:36:23;8.07;69.96
75281;HTU21D;63874;47.230;39.620;2023-03-16T05:38:53;8.04;70.12
75281;HTU21D;63874;47.230;39.620;2023-03-16T05:41:29;8.08;70.07
75281;HTU21D;63874;47.230;39.620;2023-03-16T05:44:15;8.13;69.95
75281;HTU21D;63874;47.230;39.620;2023-03-16T05:47:04;8.19;69.92
75281;HTU21D;63874;47.230;39.620;2023-03-16T05:49:32;8.24;69.74
75281;HTU21D;63874;47.230;39.620;2023-03-16T05:52:01;8.24;69.55
75281;HTU21D;63874;47.230;39.620;2023-03-16T05:54:30;8.23;69.57
75281;HTU21D;63874;47.230;39.620;2023-03-16T05:56:56;8.22;69.59
75281;HTU21D;63874;47.230;39.620;2023-03-16T05:59:22;8.23;69.68
75281;HTU21D;63874;47.230;39.620;2023-03-16T06:01:53;8.23;69.58
75281;HTU21D;63874;47.230;39.620;2023-03-16T06:04:20;8.20;69.69
75281;HTU21D;63874;47.230;39.620;2023-03-16T06:06:47;8.22;69.74
75281;HTU21D;63874;47.230;39.620;2023-03-16T06:09:20;8.27;69.62
75281;HTU21D;63874;47.230;39.620;2023-03-16T06:11:46;8.30;69.46
75281;HTU21D;63874;47.230;39.620;2023-03-16T06:14:14;8.32;69.49
75281;HTU21D;63874;47.230;39.620;2023-03-16T06:16:41;8.33;69.40
75281;HTU21D;63874;47.230;39.620;2023-03-16T06:19:07;8.30;69.24
75281;HTU21D;63874;47.230;39.620;2023-03-16T06:21:34;8.23;69.45
75281;HTU21D;63874;47.230;39.620;2023-03-16T06:24:06;8.24;69.66
75281;HTU21D;63874;47.230;39.620;2023-03-16T06:26:35;8.29;69.60
75281;HTU21D;63874;47.230;39.620;2023-03-16T06:29:03;8.30;69.61
75281;HTU21D;63874;47.230;39.620;2023-03-16T06:31:33;8.34;69.61
75281;HTU21D;63874;47.230;39.620;2023-03-16T06:34:00;8.33;69.58
75281;HTU21D;63874;47.230;39.620;2023-03-16T06:36:27;8.34;69.56
75281;HTU21D;63874;47.230;39.620;2023-03-16T06:38:57;8.30;69.61
75281;HTU21D;63874;47.230;39.620;2023-03-16T06:41:41;8.26;69.84
75281;HTU21D;63874;47.230;39.620;2023-03-16T06:44:09;8.27;69.87
75281;HTU21D;63874;47.230;39.620;2023-03-16T06:46:41;8.27;69.90
75281;HTU21D;63874;47.230;39.620;2023-03-16T06:49:07;8.32;69.94
75281;HTU21D;63874;47.230;39.620;2023-03-16T06:51:33;8.39;69.87
75281;HTU21D;63874;47.230;39.620;2023-03-16T06:53:59;8.45;69.76
75281;HTU21D;63874;47.230;39.620;2023-03-16T06:56:26;8.49;69.69
75281;HTU21D;63874;47.230;39.620;2023-03-16T06:58:52;8.56;69.52
75281;HTU21D;63874;47.230;39.620;2023-03-16T07:01:18;8.59;69.47
75281;HTU21D;63874;47.230;39.620;2023-03-16T07:03:44;8.60;69.45
75281;HTU21D;63874;47.230;39.620;2023-03-16T07:06:16;8.59;69.55
75281;HTU21D;63874;47.230;39.620;2023-03-16T07:08:42;8.48;69.65
75281;HTU21D;63874;47.230;39.620;2023-03-16T07:11:09;8.42;69.81
75281;HTU21D;63874;47.230;39.620;2023-03-16T07:13:36;8.38;70.03
75281;HTU21D;63874;47.230;39.620;2023-03-16T07:16:02;8.37;70.07
75281;HTU21D;63874;47.230;39.620;2023-03-16T07:18:30;8.43;70.19
75281;HTU21D;63874;47.230;39.620;2023-03-16T07:20:57;8.47;70.03
75281;HTU21D;63874;47.230;39.620;2023-03-16T07:23:25;8.52;69.91
75281;HTU21D;63874;47.230;39.620;2023-03-16T07:25:56;8.59;69.90
75281;HTU21D;63874;47.230;39.620;2023-03-16T07:28:22;8.64;69.80
75281;HTU21D;63874;47.230;39.620;2023-03-16T07:30:49;8.72;69.74
75281;HTU21D;63874;47.230;39.620;2023-03-16T07:33:16;8.77;69.71
75281;HTU21D;63874;47.230;39.620;2023-03-16T07:35:43;8.81;69.66
75281;HTU21D;63874;47.230;39.620;2023-03-16T07:38:09;8.88;69.61
75281;HTU21D;63874;47.230;39.620;2023-03-16T07:40:39;8.96;69.49
75281;HTU21D;63874;47.230;39.620;2023-03-16T07:43:11;8.96;69.34
75281;HTU21D;63874;47.230;39.620;2023-03-16T07:45:49;8.92;69.47
75281;HTU21D;63874;47.230;39.620;2023-03-16T07:48:18;8.90;69.79
75281;HTU21D;63874;47.230;39.620;2023-03-16T07:50:54;8.90;69.75
75281;HTU21D;63874;47.230;39.620;2023-03-16T07:53:21;8.96;69.81
75281;HTU21D;63874;47.230;39.620;2023-03-16T07:55:51;9.07;69.72
75281;HTU21D;63874;47.230;39.620;2023-03-16T07:58:18;9.18;69.40
75281;HTU21D;63874;47.230;39.620;2023-03-16T08:00:45;9.25;69.27
75281;HTU21D;63874;47.230;39.620;2023-03-16T08:03:11;9.36;69.19
75281;HTU21D;63874;47.230;39.620;2023-03-16T08:05:37;9.44;68.98
75281;HTU21D;63874;47.230;39.620;2023-03-16T08:08:09;9.47;68.77
75281;HTU21D;63874;47.230;39.620;2023-03-16T08:10:36;9.48;68.78
75281;HTU21D;63874;47.230;39.620;2023-03-16T08:13:14;9.49;68.85
75281;HTU21D;63874;47.230;39.620;2023-03-16T08:15:45;9.51;68.84
75281;HTU21D;63874;47.230;39.620;2023-03-16T08:18:19;9.52;68.83
75281;HTU21D;63874;47.230;39.620;2023-03-16T08:20:46;9.52;68.93
75281;HTU21D;63874;47.230;39.620;2023-03-16T08:23:12;9.60;68.99
75281;HTU21D;63874;47.230;39.620;2023-03-16T08:25:40;9.71;68.68
75281;HTU21D;63874;47.230;39.620;2023-03-16T08:28:14;9.82;68.39
75281;HTU21D;63874;47.230;39.620;2023-03-16T08:30:48;9.90;68.26
75281;HTU21D;63874;47.230;39.620;2023-03-16T08:33:45;9.97;68.00
75281;HTU21D;63874;47.230;39.620;2023-03-16T08:36:13;10.03;67.87
75281;HTU21D;63874;47.230;39.620;2023-03-16T08:38:42;9.98;67.78
75281;HTU21D;63874;47.230;39.620;2023-03-16T08:41:09;9.92;68.05
75281;HTU21D;63874;47.230;39.620;2023-03-16T08:43:38;9.96;67.99
75281;HTU21D;63874;47.230;39.620;2023-03-16T08:46:04;9.97;68.03
75281;HTU21D;63874;47.230;39.620;2023-03-16T08:48:42;10.04;67.88
75281;HTU21D;63874;47.230;39.620;2023-03-16T08:51:08;9.99;67.84
75281;HTU21D;63874;47.230;39.620;2023-03-16T08:53:35;9.96;68.03
75281;HTU21D;63874;47.230;39.620;2023-03-16T08:56:12;9.93;68.02
75281;HTU21D;63874;47.230;39.620;2023-03-16T08:58:40;9.86;67.98
75281;HTU21D;63874;47.230;39.620;2023-03-16T09:01:12;9.76;68.13
75281;HTU21D;63874;47.230;39.620;2023-03-16T09:03:39;9.77;68.25
75281;HTU21D;63874;47.230;39.620;2023-03-16T09:06:07;9.79;68.32
75281;HTU21D;63874;47.230;39.620;2023-03-16T09:08:38;9.80;68.38
75281;HTU21D;63874;47.230;39.620;2023-03-16T09:11:10;9.83;68.43
75281;HTU21D;63874;47.230;39.620;2023-03-16T09:13:38;9.91;68.53
75281;HTU21D;63874;47.230;39.620;2023-03-16T09:16:05;10.01;68.45
75281;HTU21D;63874;47.230;39.620;2023-03-16T09:18:32;10.11;68.12
75281;HTU21D;63874;47.230;39.620;2023-03-16T09:21:02;10.04;68.10
75281;HTU21D;63874;47.230;39.620;2023-03-16T09:23:29;9.99;68.13
75281;HTU21D;63874;47.230;39.620;2023-03-16T09:25:57;9.97;68.10
75281;HTU21D;63874;47.230;39.620;2023-03-16T09:28:25;9.88;68.39
75281;HTU21D;63874;47.230;39.620;2023-03-16T09:30:54;9.92;68.59
75281;HTU21D;63874;47.230;39.620;2023-03-16T09:33:21;10.00;68.45
75281;HTU21D;63874;47.230;39.620;2023-03-16T09:35:48;10.08;68.46
75281;HTU21D;63874;47.230;39.620;2023-03-16T09:38:14;10.18;68.20
75281;HTU21D;63874;47.230;39.620;2023-03-16T09:40:40;10.14;68.26
75281;HTU21D;63874;47.230;39.620;2023-03-16T09:48:46;10.37;68.09
75281;HTU21D;63874;47.230;39.620;2023-03-16T09:51:24;10.45;67.88
75281;HTU21D;63874;47.230;39.620;2023-03-16T09:53:58;10.49;67.65
75281;HTU21D;63874;47.230;39.620;2023-03-16T09:56:34;10.51;67.65
75281;HTU21D;63874;47.230;39.620;2023-03-16T09:59:10;10.58;67.50
75281;HTU21D;63874;47.230;39.620;2023-03-16T10:04:46;10.48;67.62
75281;HTU21D;63874;47.230;39.620;2023-03-16T10:07:18;10.45;67.59
75281;HTU21D;63874;47.230;39.620;2023-03-16T10:12:50;10.21;68.13
75281;HTU21D;63874;47.230;39.620;2023-03-16T10:15:20;10.14;68.26
75281;HTU21D;63874;47.230;39.620;2023-03-16T10:18:00;10.06;68.48
75281;HTU21D;63874;47.230;39.620;2023-03-16T10:20:31;9.98;68.81
75281;HTU21D;63874;47.230;39.620;2023-03-16T10:22:58;9.97;68.95
75281;HTU21D;63874;47.230;39.620;2023-03-16T10:25:32;10.06;68.97
75281;HTU21D;63874;47.230;39.620;2023-03-16T10:28:00;10.11;68.87
75281;HTU21D;63874;47.230;39.620;2023-03-16T10:30:36;10.14;68.71
75281;HTU21D;63874;47.230;39.620;2023-03-16T10:35:51;10.20;68.65
75281;HTU21D;63874;47.230;39.620;2023-03-16T10:38:56;10.22;68.84
75281;HTU21D;63874;47.230;39.620;2023-03-16T10:41:34;10.30;68.54
75281;HTU21D;63874;47.230;39.620;2023-03-16T10:44:15;10.28;68.55
75281;HTU21D;63874;47.230;39.620;2023-03-16T10:46:48;10.33;68.57
75281;HTU21D;63874;47.230;39.620;2023-03-16T10:49:42;10.38;68.58
75281;HTU21D;63874;47.230;39.620;2023-03-16T10:52:18;10.36;68.47
75281;HTU21D;63874;47.230;39.620;2023-03-16T10:54:57;10.37;68.62
75281;HTU21D;63874;47.230;39.620;2023-03-16T10:59:55;10.53;68.32
75281;HTU21D;63874;47.230;39.620;2023-03-16T11:02:30;10.57;68.22
75281;HTU21D;63874;47.230;39.620;2023-03-16T11:04:57;10.64;67.91
75281;HTU21D;63874;47.230;39.620;2023-03-16T11:07:23;10.64;67.84
75281;HTU21D;63874;47.230;39.620;2023-03-16T11:09:54;10.69;67.94
75281;HTU21D;63874;47.230;39.620;2023-03-16T11:12:25;10.72;67.80
75281;HTU21D;63874;47.230;39.620;2023-03-16T11:14:52;10.73;67.67
75281;HTU21D;63874;47.230;39.620;2023-03-16T11:17:31;10.70;67.71
75281;HTU21D;63874;47.230;39.620;2023-03-16T11:20:04;10.73;67.72
75281;HTU21D;63874;47.230;39.620;2023-03-16T11:22:39;10.81;67.63
75281;HTU21D;63874;47.230;39.620;2023-03-16T11:25:15;10.90;67.57
75281;HTU21D;63874;47.230;39.620;2023-03-16T11:30:48;11.12;67.27
75281;HTU21D;63874;47.230;39.620;2023-03-16T11:33:18;11.26;67.04
75281;HTU21D;63874;47.230;39.620;2023-03-16T11:45:05;11.31;66.28
75281;HTU21D;63874;47.230;39.620;2023-03-16T12:04:26;11.23;66.13
75281;HTU21D;63874;47.230;39.620;2023-03-16T12:07:02;11.24;66.24
75281;HTU21D;63874;47.230;39.620;2023-03-16T12:15:44;11.22;66.11
75281;HTU21D;63874;47.230;39.620;2023-03-16T12:18:29;11.30;65.99
75281;HTU21D;63874;47.230;39.620;2023-03-16T12:21:09;11.41;65.75
75281;HTU21D;63874;47.230;39.620;2023-03-16T12:24:04;11.49;65.93
75281;HTU21D;63874;47.230;39.620;2023-03-16T12:26:35;11.62;65.75
75281;HTU21D;63874;47.230;39.620;2023-03-16T12:29:11;11.71;65.57
75281;HTU21D;63874;47.230;39.620;2023-03-16T12:34:43;11.91;65.15
75281;HTU21D;63874;47.230;39.620;2023-03-16T12:37:21;11.92;64.87
75281;HTU21D;63874;47.230;39.620;2023-03-16T12:42:24;11.90;64.53
75281;HTU21D;63874;47.230;39.620;2023-03-16T12:47:35;11.69;64.67
75281;HTU21D;63874;47.230;39.620;2023-03-16T12:50:10;11.54;65.33
75281;HTU21D;63874;47.230;39.620;2023-03-16T12:52:43;11.51;65.45
75281;HTU21D;63874;47.230;39.620;2023-03-16T12:55:25;11.49;65.58
75281;HTU21D;63874;47.230;39.620;2023-03-16T12:58:04;11.48;65.64
75281;HTU21D;63874;47.230;39.620;2023-03-16T13:00:36;11.53;65.61
75281;HTU21D;63874;47.230;39.620;2023-03-16T13:03:04;11.51;65.54
75281;HTU21D;63874;47.230;39.620;2023-03-16T13:05:35;11.45;65.67
75281;HTU21D;63874;47.230;39.620;2023-03-16T13:10:31;11.28;66.07
75281;HTU21D;63874;47.230;39.620;2023-03-16T13:13:11;11.23;66.20
75281;HTU21D;63874;47.230;39.620;2023-03-16T13:15:38;11.23;66.33
75281;HTU21D;63874;47.230;39.620;2023-03-16T13:18:19;11.24;66.43
75281;HTU21D;63874;47.230;39.620;2023-03-16T13:20:56;11.25;66.49
75281;HTU21D;63874;47.230;39.620;2023-03-16T13:23:28;11.30;66.49
75281;HTU21D;63874;47.230;39.620;2023-03-16T13:26:15;11.23;66.50
75281;HTU21D;63874;47.230;39.620;2023-03-16T13:28:50;11.12;66.73
75281;HTU21D;63874;47.230;39.620;2023-03-16T13:33:52;11.05;67.10
75281;HTU21D;63874;47.230;39.620;2023-03-16T13:36:19;11.02;67.26
75281;HTU21D;63874;47.230;39.620;2023-03-16T13:38:55;11.00;67.29
75281;HTU21D;63874;47.230;39.620;2023-03-16T13:41:22;10.98;67.25
75281;HTU21D;63874;47.230;39.620;2023-03-16T13:43:48;10.94;67.47
75281;HTU21D;63874;47.230;39.620;2023-03-16T13:46:16;10.84;67.54
75281;HTU21D;63874;47.230;39.620;2023-03-16T13:48:45;10.74;67.83
75281;HTU21D;63874;47.230;39.620;2023-03-16T13:51:20;10.71;67.95
75281;HTU21D;63874;47.230;39.620;2023-03-16T13:53:48;10.65;68.13
75281;HTU21D;63874;47.230;39.620;2023-03-16T13:56:22;10.60;68.22
75281;HTU21D;63874;47.230;39.620;2023-03-16T13:58:55;10.55;68.37
75281;HTU21D;63874;47.230;39.620;2023-03-16T14:01:26;10.46;68.61
75281;HTU21D;63874;47.230;39.620;2023-03-16T14:03:56;10.35;68.81
75281;HTU21D;63874;47.230;39.620;2023-03-16T14:08:52;10.30;69.18
75281;HTU21D;63874;47.230;39.620;2023-03-16T14:11:19;10.29;69.15
75281;HTU21D;63874;47.230;39.620;2023-03-16T14:13:56;10.31;69.30
75281;HTU21D;63874;47.230;39.620;2023-03-16T14:16:25;10.29;69.36
75281;HTU21D;63874;47.230;39.620;2023-03-16T14:18:56;10.29;69.37
75281;HTU21D;63874;47.230;39.620;2023-03-16T14:21:25;10.31;69.60
75281;HTU21D;63874;47.230;39.620;2023-03-16T14:23:59;10.34;69.76
75281;HTU21D;63874;47.230;39.620;2023-03-16T14:26:26;10.27;69.65
75281;HTU21D;63874;47.230;39.620;2023-03-16T14:29:01;10.23;69.89
75281;HTU21D;63874;47.230;39.620;2023-03-16T14:31:38;10.20;69.99
75281;HTU21D;63874;47.230;39.620;2023-03-16T14:34:36;10.19;70.20
75281;HTU21D;63874;47.230;39.620;2023-03-16T14:37:11;10.18;70.06
75281;HTU21D;63874;47.230;39.620;2023-03-16T14:39:38;10.18;70.14
75281;HTU21D;63874;47.230;39.620;2023-03-16T14:42:19;10.18;70.32
75281;HTU21D;63874;47.230;39.620;2023-03-16T14:44:46;10.19;70.32
75281;HTU21D;63874;47.230;39.620;2023-03-16T14:47:21;10.21;70.37
75281;HTU21D;63874;47.230;39.620;2023-03-16T14:49:49;10.21;70.40
75281;HTU21D;63874;47.230;39.620;2023-03-16T14:52:26;10.20;70.55
75281;HTU21D;63874;47.230;39.620;2023-03-16T14:54:54;10.21;70.44
75281;HTU21D;63874;47.230;39.620;2023-03-16T14:57:20;10.25;70.79
75281;HTU21D;63874;47.230;39.620;2023-03-16T14:59:47;10.26;70.64
75281;HTU21D;63874;47.230;39.620;2023-03-16T15:02:24;10.26;70.73
75281;HTU21D;63874;47.230;39.620;2023-03-16T15:04:51;10.25;70.81
75281;HTU21D;63874;47.230;39.620;2023-03-16T15:07:27;10.27;70.92
75281;HTU21D;63874;47.230;39.620;2023-03-16T15:09:56;10.24;71.13
75281;HTU21D;63874;47.230;39.620;2023-03-16T15:12:25;10.23;71.20
75281;HTU21D;63874;47.230;39.620;2023-03-16T15:14:51;10.22;71.31
75281;HTU21D;63874;47.230;39.620;2023-03-16T15:17:35;10.21;71.35
75281;HTU21D;63874;47.230;39.620;2023-03-16T15:20:01;10.20;71.46
75281;HTU21D;63874;47.230;39.620;2023-03-16T15:22:34;10.20;71.54
75281;HTU21D;63874;47.230;39.620;2023-03-16T15:25:30;10.20;71.67
75281;HTU21D;63874;47.230;39.620;2023-03-16T15:28:14;10.19;71.85
75281;HTU21D;63874;47.230;39.620;2023-03-16T15:30:47;10.18;71.89
75281;HTU21D;63874;47.230;39.620;2023-03-16T15:33:13;10.16;72.00
75281;HTU21D;63874;47.230;39.620;2023-03-16T15:35:40;10.15;72.01
75281;HTU21D;63874;47.230;39.620;2023-03-16T15:40:38;10.11;72.15
75281;HTU21D;63874;47.230;39.620;2023-03-16T15:43:09;10.10;72.25
75281;HTU21D;63874;47.230;39.620;2023-03-16T15:45:36;10.09;72.27
75281;HTU21D;63874;47.230;39.620;2023-03-16T15:48:03;10.08;72.45
75281;HTU21D;63874;47.230;39.620;2023-03-16T15:50:30;10.07;72.46
75281;HTU21D;63874;47.230;39.620;2023-03-16T15:53:03;10.06;72.52
75281;HTU21D;63874;47.230;39.620;2023-03-16T15:55:44;10.05;72.51
75281;HTU21D;63874;47.230;39.620;2023-03-16T15:58:20;10.07;72.71
75281;HTU21D;63874;47.230;39.620;2023-03-16T16:00:49;10.07;72.64
75281;HTU21D;63874;47.230;39.620;2023-03-16T16:03:15;10.05;72.66
75281;HTU21D;63874;47.230;39.620;2023-03-16T16:05:41;10.05;72.69
75281;HTU21D;63874;47.230;39.620;2023-03-16T16:08:07;10.07;72.74
75281;HTU21D;63874;47.230;39.620;2023-03-16T16:10:33;10.06;72.71
75281;HTU21D;63874;47.230;39.620;2023-03-16T16:12:59;10.09;72.77
75281;HTU21D;63874;47.230;39.620;2023-03-16T16:15:27;10.10;72.77
75281;HTU21D;63874;47.230;39.620;2023-03-16T16:17:55;10.10;72.72
75281;HTU21D;63874;47.230;39.620;2023-03-16T16:20:26;10.10;72.69
75281;HTU21D;63874;47.230;39.620;2023-03-16T16:22:54;10.11;72.68
75281;HTU21D;63874;47.230;39.620;2023-03-16T16:25:22;10.13;72.70
75281;HTU21D;63874;47.230;39.620;2023-03-16T16:27:50;10.14;72.75
75281;HTU21D;63874;47.230;39.620;2023-03-16T16:30:20;10.11;72.79
75281;HTU21D;63874;47.230;39.620;2023-03-16T16:32:47;10.12;72.78
75281;HTU21D;63874;47.230;39.620;2023-03-16T16:35:19;10.13;72.78
75281;HTU21D;63874;47.230;39.620;2023-03-16T16:37:45;10.14;72.75
75281;HTU21D;63874;47.230;39.620;2023-03-16T16:40:22;10.15;72.75
75281;HTU21D;63874;47.230;39.620;2023-03-16T16:42:52;10.18;72.73
75281;HTU21D;63874;47.230;39.620;2023-03-16T16:45:23;10.19;72.73
75281;HTU21D;63874;47.230;39.620;2023-03-16T16:47:52;10.20;72.69
75281;HTU21D;63874;47.230;39.620;2023-03-16T16:50:26;10.16;72.70